sensor_id;sensor_type;location;lat;lon;timestamp;pressure;altitude;pressure_sealevel;temperature;humidity
4392;BME280;2210;51.938;8.488;2022-08-24T00:01:15;100637.97;;;22.80;52.93
4392;BME280;2210;51.938;8.488;2022-08-24T00:05:17;100633.00;;;22.77;52.82
4392;BME280;2210;51.938;8.488;2022-08-24T00:09:20;100644.66;;;22.84;52.46
4392;BME280;2210;51.938;8.488;2022-08-24T00:13:20;100647.06;;;22.77;52.99
4392;BME280;2210;51.938;8.488;2022-08-24T00:17:20;100640.09;;;22.74;53.39
4392;BME280;2210;51.938;8.488;2022-08-24T00:21:21;100643.03;;;22.69;53.70
4392;BME280;2210;51.938;8.488;2022-08-24T00:25:21;100636.78;;;22.72;53.53
4392;BME280;2210;51.938;8.488;2022-08-24T00:29:22;100642.94;;;22.61;53.62
4392;BME280;2210;51.938;8.488;2022-08-24T00:33:22;100635.66;;;22.60;53.75
4392;BME280;2210;51.938;8.488;2022-08-24T00:37:23;100640.97;;;22.61;54.48
4392;BME280;2210;51.938;8.488;2022-08-24T00:41:24;100641.84;;;22.48;54.49
4392;BME280;2210;51.938;8.488;2022-08-24T00:45:24;100642.78;;;22.43;54.52
4392;BME280;2210;51.938;8.488;2022-08-24T00:49:38;100643.91;;;22.28;54.83
4392;BME280;2210;51.938;8.488;2022-08-24T00:53:43;100645.78;;;22.33;55.22
4392;BME280;2210;51.938;8.488;2022-08-24T00:57:48;100644.56;;;22.11;55.54
4392;BME280;2210;51.938;8.488;2022-08-24T01:01:51;100647.38;;;22.11;55.80
4392;BME280;2210;51.938;8.488;2022-08-24T01:05:53;100637.28;;;22.10;56.12
4392;BME280;2210;51.938;8.488;2022-08-24T01:09:56;100642.69;;;21.93;56.78
4392;BME280;2210;51.938;8.488;2022-08-24T01:13:58;100644.13;;;21.90;56.60
4392;BME280;2210;51.938;8.488;2022-08-24T01:17:59;100642.88;;;21.82;56.93
4392;BME280;2210;51.938;8.488;2022-08-24T01:22:55;100640.38;;;21.81;57.39
4392;BME280;2210;51.938;8.488;2022-08-24T01:26:57;100643.09;;;21.86;57.16
4392;BME280;2210;51.938;8.488;2022-08-24T01:30:57;100647.91;;;21.85;57.28
4392;BME280;2210;51.938;8.488;2022-08-24T01:34:58;100641.66;;;21.88;57.33
4392;BME280;2210;51.938;8.488;2022-08-24T01:39:15;100646.63;;;21.78;57.57
4392;BME280;2210;51.938;8.488;2022-08-24T01:43:19;100641.59;;;21.61;58.48
4392;BME280;2210;51.938;8.488;2022-08-24T01:47:20;100649.06;;;21.51;59.18
4392;BME280;2210;51.938;8.488;2022-08-24T01:51:21;100648.47;;;21.54;58.88
4392;BME280;2210;51.938;8.488;2022-08-24T01:55:24;100642.38;;;21.47;59.48
4392;BME280;2210;51.938;8.488;2022-08-24T01:59:24;100646.78;;;21.53;59.33
4392;BME280;2210;51.938;8.488;2022-08-24T02:03:25;100639.06;;;21.45;59.30
4392;BME280;2210;51.938;8.488;2022-08-24T02:07:26;100642.81;;;21.41;59.41
4392;BME280;2210;51.938;8.488;2022-08-24T02:11:27;100644.44;;;21.42;59.19
4392;BME280;2210;51.938;8.488;2022-08-24T02:15:36;100651.69;;;21.29;59.84
4392;BME280;2210;51.938;8.488;2022-08-24T02:19:38;100653.22;;;21.21;60.42
4392;BME280;2210;51.938;8.488;2022-08-24T02:23:40;100649.06;;;21.18;60.81
4392;BME280;2210;51.938;8.488;2022-08-24T02:27:41;100647.50;;;21.12;60.86
4392;BME280;2210;51.938;8.488;2022-08-24T02:31:41;100650.81;;;21.14;61.15
4392;BME280;2210;51.938;8.488;2022-08-24T02:35:41;100649.75;;;21.10;61.97
4392;BME280;2210;51.938;8.488;2022-08-24T02:39:42;100646.59;;;20.98;61.62
4392;BME280;2210;51.938;8.488;2022-08-24T02:43:42;100651.75;;;20.91;62.34
4392;BME280;2210;51.938;8.488;2022-08-24T02:47:43;100649.03;;;20.85;62.28
4392;BME280;2210;51.938;8.488;2022-08-24T02:51:45;100654.72;;;20.80;62.68
4392;BME280;2210;51.938;8.488;2022-08-24T02:55:46;100651.41;;;20.78;62.96
4392;BME280;2210;51.938;8.488;2022-08-24T02:59:46;100654.19;;;20.78;63.15
4392;BME280;2210;51.938;8.488;2022-08-24T03:03:46;100662.13;;;20.71;63.21
4392;BME280;2210;51.938;8.488;2022-08-24T03:07:47;100657.56;;;20.94;62.88
4392;BME280;2210;51.938;8.488;2022-08-24T03:11:47;100658.44;;;20.95;62.43
4392;BME280;2210;51.938;8.488;2022-08-24T03:15:47;100671.16;;;20.87;62.60
4392;BME280;2210;51.938;8.488;2022-08-24T03:19:48;100661.44;;;20.79;63.23
4392;BME280;2210;51.938;8.488;2022-08-24T03:23:48;100662.44;;;20.88;62.79
4392;BME280;2210;51.938;8.488;2022-08-24T03:27:49;100665.63;;;20.82;62.97
4392;BME280;2210;51.938;8.488;2022-08-24T03:31:51;100663.81;;;20.72;63.53
4392;BME280;2210;51.938;8.488;2022-08-24T03:35:51;100662.78;;;20.63;64.06
4392;BME280;2210;51.938;8.488;2022-08-24T03:39:52;100662.78;;;20.63;63.80
4392;BME280;2210;51.938;8.488;2022-08-24T03:43:52;100652.81;;;20.57;63.84
4392;BME280;2210;51.938;8.488;2022-08-24T03:47:55;100656.66;;;20.61;64.04
4392;BME280;2210;51.938;8.488;2022-08-24T03:51:55;100651.25;;;20.64;63.50
4392;BME280;2210;51.938;8.488;2022-08-24T03:55:56;100660.03;;;20.58;64.44
4392;BME280;2210;51.938;8.488;2022-08-24T03:59:56;100662.78;;;20.63;63.79
4392;BME280;2210;51.938;8.488;2022-08-24T04:03:56;100661.34;;;20.65;64.01
4392;BME280;2210;51.938;8.488;2022-08-24T04:07:57;100661.72;;;20.59;63.99
4392;BME280;2210;51.938;8.488;2022-08-24T04:11:57;100661.97;;;20.62;64.27
4392;BME280;2210;51.938;8.488;2022-08-24T04:16:02;100667.94;;;20.55;64.37
4392;BME280;2210;51.938;8.488;2022-08-24T04:20:04;100664.53;;;20.59;64.58
4392;BME280;2210;51.938;8.488;2022-08-24T04:24:06;100676.19;;;20.66;65.60
4392;BME280;2210;51.938;8.488;2022-08-24T04:28:08;100680.38;;;20.68;65.17
4392;BME280;2210;51.938;8.488;2022-08-24T04:32:08;100672.97;;;20.53;65.33
4392;BME280;2210;51.938;8.488;2022-08-24T04:36:10;100674.66;;;20.54;65.41
4392;BME280;2210;51.938;8.488;2022-08-24T04:40:10;100673.59;;;20.50;65.71
4392;BME280;2210;51.938;8.488;2022-08-24T04:44:11;100675.94;;;20.43;65.79
4392;BME280;2210;51.938;8.488;2022-08-24T04:48:12;100675.41;;;20.41;66.27
4392;BME280;2210;51.938;8.488;2022-08-24T04:52:13;100683.19;;;20.44;66.13
4392;BME280;2210;51.938;8.488;2022-08-24T04:56:17;100689.09;;;20.43;66.86
4392;BME280;2210;51.938;8.488;2022-08-24T05:00:18;100686.66;;;20.36;66.86
4392;BME280;2210;51.938;8.488;2022-08-24T05:04:18;100689.47;;;20.36;66.82
4392;BME280;2210;51.938;8.488;2022-08-24T05:08:19;100689.81;;;20.29;67.62
4392;BME280;2210;51.938;8.488;2022-08-24T05:12:19;100699.47;;;20.42;67.79
4392;BME280;2210;51.938;8.488;2022-08-24T05:16:20;100693.81;;;20.47;67.05
4392;BME280;2210;51.938;8.488;2022-08-24T05:20:21;100703.78;;;20.53;67.07
4392;BME280;2210;51.938;8.488;2022-08-24T05:24:21;100698.19;;;20.53;67.13
4392;BME280;2210;51.938;8.488;2022-08-24T05:28:22;100703.44;;;20.60;66.52
4392;BME280;2210;51.938;8.488;2022-08-24T05:32:22;100706.53;;;20.59;66.85
4392;BME280;2210;51.938;8.488;2022-08-24T05:36:32;100706.44;;;20.69;66.93
4392;BME280;2210;51.938;8.488;2022-08-24T05:40:32;100716.66;;;20.79;66.91
4392;BME280;2210;51.938;8.488;2022-08-24T05:44:33;100716.28;;;20.85;66.41
4392;BME280;2210;51.938;8.488;2022-08-24T05:48:33;100720.09;;;20.95;66.14
4392;BME280;2210;51.938;8.488;2022-08-24T05:52:34;100713.72;;;21.08;65.08
4392;BME280;2210;51.938;8.488;2022-08-24T05:56:34;100719.63;;;21.26;65.07
4392;BME280;2210;51.938;8.488;2022-08-24T06:00:35;100721.25;;;21.27;65.44
4392;BME280;2210;51.938;8.488;2022-08-24T06:04:36;100719.00;;;21.29;64.81
4392;BME280;2210;51.938;8.488;2022-08-24T06:08:39;100730.66;;;21.36;64.25
4392;BME280;2210;51.938;8.488;2022-08-24T06:12:39;100732.16;;;21.47;64.69
4392;BME280;2210;51.938;8.488;2022-08-24T06:16:44;100736.25;;;21.55;63.73
4392;BME280;2210;51.938;8.488;2022-08-24T06:20:44;100737.16;;;21.69;62.66
4392;BME280;2210;51.938;8.488;2022-08-24T06:24:45;100731.88;;;21.82;62.96
4392;BME280;2210;51.938;8.488;2022-08-24T06:29:05;100734.84;;;22.18;61.49
4392;BME280;2210;51.938;8.488;2022-08-24T06:33:06;100736.94;;;22.40;61.09
4392;BME280;2210;51.938;8.488;2022-08-24T06:37:06;100736.13;;;22.40;60.30
4392;BME280;2210;51.938;8.488;2022-08-24T06:41:06;100739.81;;;22.77;59.88
4392;BME280;2210;51.938;8.488;2022-08-24T06:45:09;100747.50;;;22.85;59.91
4392;BME280;2210;51.938;8.488;2022-08-24T06:49:09;100759.28;;;22.87;60.66
4392;BME280;2210;51.938;8.488;2022-08-24T06:53:10;100747.94;;;22.79;59.86
4392;BME280;2210;51.938;8.488;2022-08-24T06:57:13;100747.22;;;22.73;59.84
4392;BME280;2210;51.938;8.488;2022-08-24T07:01:20;100752.97;;;23.04;59.19
4392;BME280;2210;51.938;8.488;2022-08-24T07:05:20;100750.13;;;23.32;57.11
4392;BME280;2210;51.938;8.488;2022-08-24T07:09:21;100762.34;;;23.50;57.70
4392;BME280;2210;51.938;8.488;2022-08-24T07:13:24;100761.19;;;23.51;56.37
4392;BME280;2210;51.938;8.488;2022-08-24T07:17:27;100762.38;;;23.96;55.69
4392;BME280;2210;51.938;8.488;2022-08-24T07:21:28;100766.66;;;23.93;55.67
4392;BME280;2210;51.938;8.488;2022-08-24T07:25:29;100761.56;;;24.04;55.89
4392;BME280;2210;51.938;8.488;2022-08-24T07:29:30;100768.94;;;24.22;55.61
4392;BME280;2210;51.938;8.488;2022-08-24T07:33:32;100772.97;;;24.30;55.42
4392;BME280;2210;51.938;8.488;2022-08-24T07:37:32;100765.75;;;24.15;55.27
4392;BME280;2210;51.938;8.488;2022-08-24T07:41:37;100772.13;;;24.30;55.16
4392;BME280;2210;51.938;8.488;2022-08-24T07:45:41;100773.78;;;24.31;55.52
4392;BME280;2210;51.938;8.488;2022-08-24T07:49:41;100779.69;;;24.52;54.61
4392;BME280;2210;51.938;8.488;2022-08-24T07:53:42;100766.19;;;24.80;54.94
4392;BME280;2210;51.938;8.488;2022-08-24T07:57:42;100777.66;;;24.92;53.86
4392;BME280;2210;51.938;8.488;2022-08-24T08:01:44;100786.47;;;24.91;53.42
4392;BME280;2210;51.938;8.488;2022-08-24T08:05:44;100787.16;;;25.32;52.76
4392;BME280;2210;51.938;8.488;2022-08-24T08:09:45;100793.50;;;25.55;50.65
4392;BME280;2210;51.938;8.488;2022-08-24T08:13:45;100791.50;;;25.64;50.27
4392;BME280;2210;51.938;8.488;2022-08-24T08:17:45;100793.50;;;25.64;49.79
4392;BME280;2210;51.938;8.488;2022-08-24T08:21:49;100788.84;;;25.59;50.09
4392;BME280;2210;51.938;8.488;2022-08-24T08:26:12;100787.88;;;25.55;49.50
4392;BME280;2210;51.938;8.488;2022-08-24T08:30:14;100790.03;;;25.67;49.68
4392;BME280;2210;51.938;8.488;2022-08-24T08:34:14;100789.78;;;25.89;49.18
4392;BME280;2210;51.938;8.488;2022-08-24T08:38:16;100775.81;;;26.11;47.84
4392;BME280;2210;51.938;8.488;2022-08-24T08:42:37;100776.34;;;26.13;46.71
4392;BME280;2210;51.938;8.488;2022-08-24T08:51:30;100782.00;;;26.51;46.88
4392;BME280;2210;51.938;8.488;2022-08-24T08:55:35;100776.94;;;26.66;45.78
4392;BME280;2210;51.938;8.488;2022-08-24T09:04:17;100774.03;;;26.83;45.88
4392;BME280;2210;51.938;8.488;2022-08-24T09:08:39;100786.59;;;26.95;45.22
4392;BME280;2210;51.938;8.488;2022-08-24T09:12:54;100777.03;;;27.08;43.73
4392;BME280;2210;51.938;8.488;2022-08-24T09:17:22;100777.56;;;27.22;43.94
4392;BME280;2210;51.938;8.488;2022-08-24T09:30:22;100777.59;;;27.43;43.76
4392;BME280;2210;51.938;8.488;2022-08-24T09:38:56;100775.78;;;27.93;42.42
4392;BME280;2210;51.938;8.488;2022-08-24T09:47:31;100772.06;;;28.02;41.71
4392;BME280;2210;51.938;8.488;2022-08-24T09:51:59;100762.78;;;27.92;43.00
4392;BME280;2210;51.938;8.488;2022-08-24T09:56:23;100760.88;;;28.05;41.19
4392;BME280;2210;51.938;8.488;2022-08-24T10:00:30;100754.94;;;28.23;40.97
4392;BME280;2210;51.938;8.488;2022-08-24T10:04:49;100750.13;;;28.60;39.09
4392;BME280;2210;51.938;8.488;2022-08-24T10:14:00;100735.59;;;28.74;39.63
4392;BME280;2210;51.938;8.488;2022-08-24T10:23:10;100735.13;;;28.85;40.89
4392;BME280;2210;51.938;8.488;2022-08-24T10:32:21;100729.91;;;28.99;39.27
4392;BME280;2210;51.938;8.488;2022-08-24T10:45:47;100722.00;;;29.62;39.13
4392;BME280;2210;51.938;8.488;2022-08-24T10:54:32;100705.03;;;29.65;38.11
4392;BME280;2210;51.938;8.488;2022-08-24T10:58:57;100715.97;;;29.63;38.03
4392;BME280;2210;51.938;8.488;2022-08-24T11:03:06;100715.41;;;29.57;38.41
4392;BME280;2210;51.938;8.488;2022-08-24T11:07:19;100717.69;;;29.68;38.28
4392;BME280;2210;51.938;8.488;2022-08-24T11:11:42;100711.91;;;30.08;36.48
4392;BME280;2210;51.938;8.488;2022-08-24T11:15:55;100705.22;;;30.01;36.64
4392;BME280;2210;51.938;8.488;2022-08-24T11:19:55;100706.31;;;30.12;37.04
4392;BME280;2210;51.938;8.488;2022-08-24T11:24:04;100704.38;;;30.32;37.69
4392;BME280;2210;51.938;8.488;2022-08-24T11:28:07;100707.47;;;30.59;36.26
4392;BME280;2210;51.938;8.488;2022-08-24T11:32:45;100702.38;;;30.49;34.96
4392;BME280;2210;51.938;8.488;2022-08-24T11:36:46;100692.91;;;30.60;35.11
4392;BME280;2210;51.938;8.488;2022-08-24T11:40:53;100699.25;;;30.54;35.84
4392;BME280;2210;51.938;8.488;2022-08-24T11:45:04;100690.19;;;30.68;34.75
4392;BME280;2210;51.938;8.488;2022-08-24T11:49:17;100686.28;;;30.40;35.14
4392;BME280;2210;51.938;8.488;2022-08-24T11:53:29;100700.69;;;30.64;35.54
4392;BME280;2210;51.938;8.488;2022-08-24T11:57:41;100691.03;;;30.68;35.72
4392;BME280;2210;51.938;8.488;2022-08-24T12:01:51;100696.09;;;30.59;36.39
4392;BME280;2210;51.938;8.488;2022-08-24T12:05:58;100696.31;;;30.50;35.07
4392;BME280;2210;51.938;8.488;2022-08-24T12:14:50;100682.84;;;30.67;34.42
4392;BME280;2210;51.938;8.488;2022-08-24T12:18:59;100686.03;;;30.81;34.62
4392;BME280;2210;51.938;8.488;2022-08-24T12:23:05;100685.03;;;31.09;33.48
4392;BME280;2210;51.938;8.488;2022-08-24T12:27:12;100678.34;;;31.01;34.48
4392;BME280;2210;51.938;8.488;2022-08-24T12:35:41;100675.50;;;31.01;32.66
4392;BME280;2210;51.938;8.488;2022-08-24T12:39:56;100668.84;;;31.13;33.16
4392;BME280;2210;51.938;8.488;2022-08-24T12:44:04;100670.41;;;31.30;32.69
4392;BME280;2210;51.938;8.488;2022-08-24T12:52:34;100671.06;;;31.43;31.86
4392;BME280;2210;51.938;8.488;2022-08-24T12:57:01;100667.13;;;31.51;31.22
4392;BME280;2210;51.938;8.488;2022-08-24T13:01:10;100658.41;;;31.21;31.66
4392;BME280;2210;51.938;8.488;2022-08-24T13:05:16;100657.81;;;31.31;33.34
4392;BME280;2210;51.938;8.488;2022-08-24T13:09:32;100660.56;;;31.47;31.88
4392;BME280;2210;51.938;8.488;2022-08-24T13:13:41;100661.19;;;31.37;32.06
4392;BME280;2210;51.938;8.488;2022-08-24T13:17:42;100661.81;;;31.50;32.93
4392;BME280;2210;51.938;8.488;2022-08-24T13:21:46;100660.69;;;31.31;32.69
4392;BME280;2210;51.938;8.488;2022-08-24T13:30:04;100653.50;;;31.60;31.25
4392;BME280;2210;51.938;8.488;2022-08-24T13:47:05;100643.63;;;31.35;32.50
4392;BME280;2210;51.938;8.488;2022-08-24T13:55:31;100645.66;;;31.77;32.04
4392;BME280;2210;51.938;8.488;2022-08-24T14:04:09;100639.72;;;31.63;31.76
4392;BME280;2210;51.938;8.488;2022-08-24T14:08:26;100641.19;;;31.76;31.91
4392;BME280;2210;51.938;8.488;2022-08-24T14:16:40;100628.59;;;31.57;31.96
4392;BME280;2210;51.938;8.488;2022-08-24T14:21:09;100632.75;;;31.60;31.34
4392;BME280;2210;51.938;8.488;2022-08-24T14:25:19;100628.22;;;31.59;31.32
4392;BME280;2210;51.938;8.488;2022-08-24T14:29:26;100615.28;;;31.42;32.22
4392;BME280;2210;51.938;8.488;2022-08-24T14:33:32;100614.97;;;31.47;31.31
4392;BME280;2210;51.938;8.488;2022-08-24T14:38:00;100618.63;;;31.24;32.18
4392;BME280;2210;51.938;8.488;2022-08-24T14:46:40;100616.38;;;31.57;31.32
4392;BME280;2210;51.938;8.488;2022-08-24T14:59:32;100608.25;;;31.36;31.49
4392;BME280;2210;51.938;8.488;2022-08-24T15:03:58;100605.22;;;31.48;32.47
4392;BME280;2210;51.938;8.488;2022-08-24T15:12:32;100598.19;;;31.42;32.27
4392;BME280;2210;51.938;8.488;2022-08-24T15:16:45;100601.16;;;31.49;32.21
4392;BME280;2210;51.938;8.488;2022-08-24T15:21:09;100597.31;;;31.38;32.69
4392;BME280;2210;51.938;8.488;2022-08-24T15:25:12;100593.50;;;31.30;32.32
4392;BME280;2210;51.938;8.488;2022-08-24T15:29:23;100598.50;;;31.37;32.94
4392;BME280;2210;51.938;8.488;2022-08-24T15:33:25;100584.56;;;31.32;32.40
4392;BME280;2210;51.938;8.488;2022-08-24T15:37:37;100586.34;;;31.40;32.20
4392;BME280;2210;51.938;8.488;2022-08-24T15:41:39;100588.59;;;31.31;31.83
4392;BME280;2210;51.938;8.488;2022-08-24T15:45:46;100588.41;;;31.20;31.98
4392;BME280;2210;51.938;8.488;2022-08-24T15:49:52;100582.78;;;31.23;32.22
4392;BME280;2210;51.938;8.488;2022-08-24T15:53:54;100592.41;;;31.15;32.31
4392;BME280;2210;51.938;8.488;2022-08-24T15:57:55;100587.91;;;31.14;32.08
4392;BME280;2210;51.938;8.488;2022-08-24T16:02:17;100591.50;;;31.11;31.66
4392;BME280;2210;51.938;8.488;2022-08-24T16:06:35;100585.47;;;30.97;32.94
4392;BME280;2210;51.938;8.488;2022-08-24T16:10:46;100591.03;;;30.89;33.90
4392;BME280;2210;51.938;8.488;2022-08-24T16:14:52;100585.22;;;30.82;33.22
4392;BME280;2210;51.938;8.488;2022-08-24T16:18:59;100589.25;;;30.81;32.98
4392;BME280;2210;51.938;8.488;2022-08-24T16:23:04;100582.50;;;30.70;33.62
4392;BME280;2210;51.938;8.488;2022-08-24T16:27:09;100583.47;;;30.77;32.81
4392;BME280;2210;51.938;8.488;2022-08-24T16:31:09;100584.91;;;30.68;33.27
4392;BME280;2210;51.938;8.488;2022-08-24T16:39:10;100582.19;;;30.55;33.45
4392;BME280;2210;51.938;8.488;2022-08-24T16:43:11;100592.00;;;30.58;33.45
4392;BME280;2210;51.938;8.488;2022-08-24T16:47:11;100589.16;;;30.58;33.57
4392;BME280;2210;51.938;8.488;2022-08-24T16:51:12;100584.59;;;30.53;33.29
4392;BME280;2210;51.938;8.488;2022-08-24T16:55:12;100590.59;;;30.48;33.77
4392;BME280;2210;51.938;8.488;2022-08-24T16:59:17;100584.44;;;30.46;33.62
4392;BME280;2210;51.938;8.488;2022-08-24T17:03:19;100581.09;;;30.44;33.30
4392;BME280;2210;51.938;8.488;2022-08-24T17:07:22;100588.47;;;30.45;33.98
4392;BME280;2210;51.938;8.488;2022-08-24T17:11:23;100585.63;;;30.45;33.82
4392;BME280;2210;51.938;8.488;2022-08-24T17:15:24;100582.59;;;30.38;34.51
4392;BME280;2210;51.938;8.488;2022-08-24T17:19:27;100579.59;;;30.31;34.20
4392;BME280;2210;51.938;8.488;2022-08-24T17:23:29;100589.75;;;30.32;34.01
4392;BME280;2210;51.938;8.488;2022-08-24T17:27:31;100592.16;;;30.30;34.29
4392;BME280;2210;51.938;8.488;2022-08-24T17:31:32;100599.25;;;30.20;35.66
4392;BME280;2210;51.938;8.488;2022-08-24T17:35:33;100603.78;;;30.05;35.72
4392;BME280;2210;51.938;8.488;2022-08-24T17:39:35;100597.34;;;30.08;35.20
4392;BME280;2210;51.938;8.488;2022-08-24T17:43:35;100601.22;;;30.00;36.06
4392;BME280;2210;51.938;8.488;2022-08-24T17:47:36;100610.66;;;29.88;36.87
4392;BME280;2210;51.938;8.488;2022-08-24T17:51:36;100614.59;;;29.83;36.31
4392;BME280;2210;51.938;8.488;2022-08-24T17:55:36;100622.63;;;29.81;35.39
4392;BME280;2210;51.938;8.488;2022-08-24T17:59:36;100621.72;;;29.77;35.97
4392;BME280;2210;51.938;8.488;2022-08-24T18:03:37;100622.19;;;29.63;36.09
4392;BME280;2210;51.938;8.488;2022-08-24T18:07:46;100625.19;;;29.54;36.07
4392;BME280;2210;51.938;8.488;2022-08-24T18:11:47;100619.69;;;29.46;36.33
4392;BME280;2210;51.938;8.488;2022-08-24T18:15:48;100624.34;;;29.38;36.03
4392;BME280;2210;51.938;8.488;2022-08-24T18:19:49;100629.38;;;29.29;36.71
4392;BME280;2210;51.938;8.488;2022-08-24T18:23:51;100632.34;;;29.20;36.74
4392;BME280;2210;51.938;8.488;2022-08-24T18:27:53;100641.13;;;29.15;36.65
4392;BME280;2210;51.938;8.488;2022-08-24T18:31:55;100647.78;;;29.06;36.48
4392;BME280;2210;51.938;8.488;2022-08-24T18:35:56;100649.13;;;28.97;37.44
4392;BME280;2210;51.938;8.488;2022-08-24T18:39:56;100655.41;;;28.90;36.95
4392;BME280;2210;51.938;8.488;2022-08-24T18:43:57;100653.31;;;28.74;37.99
4392;BME280;2210;51.938;8.488;2022-08-24T18:47:58;100661.25;;;28.69;38.48
4392;BME280;2210;51.938;8.488;2022-08-24T18:51:58;100677.34;;;28.52;38.04
4392;BME280;2210;51.938;8.488;2022-08-24T18:56:01;100671.22;;;28.38;38.86
4392;BME280;2210;51.938;8.488;2022-08-24T19:00:04;100676.63;;;28.31;38.92
4392;BME280;2210;51.938;8.488;2022-08-24T19:04:08;100682.91;;;28.24;39.19
4392;BME280;2210;51.938;8.488;2022-08-24T19:08:09;100683.38;;;28.14;38.64
4392;BME280;2210;51.938;8.488;2022-08-24T19:12:09;100690.59;;;28.11;39.12
4392;BME280;2210;51.938;8.488;2022-08-24T19:16:09;100679.69;;;28.01;38.93
4392;BME280;2210;51.938;8.488;2022-08-24T19:20:10;100686.78;;;27.95;39.02
4392;BME280;2210;51.938;8.488;2022-08-24T19:24:10;100689.56;;;27.82;39.41
4392;BME280;2210;51.938;8.488;2022-08-24T19:28:11;100696.63;;;27.76;39.53
4392;BME280;2210;51.938;8.488;2022-08-24T19:32:23;100691.31;;;27.62;39.22
4392;BME280;2210;51.938;8.488;2022-08-24T19:36:25;100709.31;;;27.57;39.16
4392;BME280;2210;51.938;8.488;2022-08-24T19:40:26;100702.47;;;27.46;39.22
4392;BME280;2210;51.938;8.488;2022-08-24T19:44:27;100704.53;;;27.37;39.39
4392;BME280;2210;51.938;8.488;2022-08-24T19:48:47;100706.13;;;27.25;39.38
4392;BME280;2210;51.938;8.488;2022-08-24T19:52:47;100704.66;;;27.19;39.14
4392;BME280;2210;51.938;8.488;2022-08-24T19:56:51;100704.88;;;27.14;39.68
4392;BME280;2210;51.938;8.488;2022-08-24T20:01:04;100708.59;;;27.06;39.49
4392;BME280;2210;51.938;8.488;2022-08-24T20:05:05;100707.19;;;27.00;39.66
4392;BME280;2210;51.938;8.488;2022-08-24T20:09:06;100709.03;;;26.96;39.19
4392;BME280;2210;51.938;8.488;2022-08-24T20:13:06;100715.38;;;26.92;39.10
4392;BME280;2210;51.938;8.488;2022-08-24T20:17:07;100713.59;;;26.88;39.33
4392;BME280;2210;51.938;8.488;2022-08-24T20:21:07;100713.31;;;26.81;39.14
4392;BME280;2210;51.938;8.488;2022-08-24T20:25:08;100720.47;;;26.78;38.79
4392;BME280;2210;51.938;8.488;2022-08-24T20:29:08;100712.84;;;26.70;38.76
4392;BME280;2210;51.938;8.488;2022-08-24T20:33:15;100723.19;;;26.66;39.05
4392;BME280;2210;51.938;8.488;2022-08-24T20:37:20;100717.75;;;26.52;39.73
4392;BME280;2210;51.938;8.488;2022-08-24T20:41:21;100717.75;;;26.52;39.67
4392;BME280;2210;51.938;8.488;2022-08-24T20:45:22;100720.94;;;26.50;38.97
4392;BME280;2210;51.938;8.488;2022-08-24T20:49:24;100719.97;;;26.46;38.50
4392;BME280;2210;51.938;8.488;2022-08-24T20:53:28;100718.47;;;26.49;38.79
4392;BME280;2210;51.938;8.488;2022-08-24T20:57:28;100717.84;;;26.43;38.36
4392;BME280;2210;51.938;8.488;2022-08-24T21:01:29;100719.34;;;26.40;38.89
4392;BME280;2210;51.938;8.488;2022-08-24T21:05:30;100716.03;;;26.38;39.22
4392;BME280;2210;51.938;8.488;2022-08-24T21:09:30;100720.06;;;26.29;39.45
4392;BME280;2210;51.938;8.488;2022-08-24T21:13:31;100723.22;;;26.27;39.39
4392;BME280;2210;51.938;8.488;2022-08-24T21:17:31;100727.91;;;26.23;40.00
4392;BME280;2210;51.938;8.488;2022-08-24T21:21:31;100727.44;;;26.21;39.51
4392;BME280;2210;51.938;8.488;2022-08-24T21:25:32;100730.63;;;26.11;39.96
4392;BME280;2210;51.938;8.488;2022-08-24T21:29:32;100737.75;;;26.08;40.49
4392;BME280;2210;51.938;8.488;2022-08-24T21:33:33;100741.09;;;26.01;40.58
4392;BME280;2210;51.938;8.488;2022-08-24T21:37:52;100742.25;;;26.00;40.27
4392;BME280;2210;51.938;8.488;2022-08-24T21:41:52;100744.94;;;25.97;40.36
4392;BME280;2210;51.938;8.488;2022-08-24T21:45:53;100753.06;;;25.89;40.76
4392;BME280;2210;51.938;8.488;2022-08-24T21:49:54;100750.44;;;25.84;41.23
4392;BME280;2210;51.938;8.488;2022-08-24T21:53:54;100753.44;;;25.79;41.10
4392;BME280;2210;51.938;8.488;2022-08-24T21:57:55;100759.44;;;25.69;41.34
4392;BME280;2210;51.938;8.488;2022-08-24T22:01:55;100761.78;;;25.67;41.75
4392;BME280;2210;51.938;8.488;2022-08-24T22:05:55;100767.09;;;25.59;41.92
4392;BME280;2210;51.938;8.488;2022-08-24T22:09:56;100762.28;;;25.60;42.03
4392;BME280;2210;51.938;8.488;2022-08-24T22:13:56;100762.78;;;25.53;42.10
4392;BME280;2210;51.938;8.488;2022-08-24T22:17:57;100759.13;;;25.44;42.58
4392;BME280;2210;51.938;8.488;2022-08-24T22:21:57;100757.47;;;25.43;42.92
4392;BME280;2210;51.938;8.488;2022-08-24T22:25:58;100763.44;;;25.33;43.03
4392;BME280;2210;51.938;8.488;2022-08-24T22:29:58;100760.59;;;25.24;43.46
4392;BME280;2210;51.938;8.488;2022-08-24T22:34:00;100747.31;;;25.16;43.26
4392;BME280;2210;51.938;8.488;2022-08-24T22:38:00;100755.13;;;25.10;43.67
4392;BME280;2210;51.938;8.488;2022-08-24T22:42:01;100748.31;;;25.02;43.95
4392;BME280;2210;51.938;8.488;2022-08-24T22:46:03;100745.16;;;25.04;44.43
4392;BME280;2210;51.938;8.488;2022-08-24T22:50:04;100736.66;;;24.78;45.13
4392;BME280;2210;51.938;8.488;2022-08-24T22:54:06;100735.00;;;24.77;45.11
4392;BME280;2210;51.938;8.488;2022-08-24T22:58:06;100737.13;;;24.71;45.23
4392;BME280;2210;51.938;8.488;2022-08-24T23:02:12;100732.16;;;24.68;45.46
4392;BME280;2210;51.938;8.488;2022-08-24T23:06:13;100736.66;;;24.69;45.64
4392;BME280;2210;51.938;8.488;2022-08-24T23:10:14;100740.09;;;24.66;45.90
4392;BME280;2210;51.938;8.488;2022-08-24T23:14:15;100736.97;;;24.67;46.14
4392;BME280;2210;51.938;8.488;2022-08-24T23:18:15;100742.22;;;24.60;46.40
4392;BME280;2210;51.938;8.488;2022-08-24T23:22:37;100745.72;;;24.57;46.63
4392;BME280;2210;51.938;8.488;2022-08-24T23:26:38;100739.88;;;24.53;46.49
4392;BME280;2210;51.938;8.488;2022-08-24T23:30:38;100741.38;;;24.51;47.24
4392;BME280;2210;51.938;8.488;2022-08-24T23:34:38;100738.19;;;24.44;47.39
4392;BME280;2210;51.938;8.488;2022-08-24T23:38:39;100734.19;;;24.36;47.71
4392;BME280;2210;51.938;8.488;2022-08-24T23:42:40;100737.38;;;24.43;48.22
4392;BME280;2210;51.938;8.488;2022-08-24T23:46:41;100735.19;;;24.40;49.32
4392;BME280;2210;51.938;8.488;2022-08-24T23:50:44;100736.84;;;24.32;49.14